createdAt,value
2018-09-18T00:00:19.564Z,3.80
2018-09-18T00:02:56.072Z,3.50
2018-09-18T00:05:26.513Z,3.67
2018-09-18T00:07:57.672Z,3.50
2018-09-18T00:10:28.065Z,3.47
2018-09-18T00:12:58.412Z,3.60
2018-09-18T00:15:28.815Z,3.70
2018-09-18T00:17:59.218Z,4.00
2018-09-18T00:20:48.740Z,3.67
2018-09-18T00:23:19.113Z,3.50
2018-09-18T00:25:49.489Z,3.40
2018-09-18T00:28:20.676Z,4.17
2018-09-18T00:30:54.060Z,3.97
2018-09-18T00:33:24.450Z,4.00
2018-09-18T00:35:54.875Z,3.63
2018-09-18T00:38:25.257Z,3.30
2018-09-18T00:40:55.645Z,3.73
2018-09-18T00:43:26.065Z,3.63
2018-09-18T00:45:57.229Z,3.80
2018-09-18T00:48:28.651Z,3.80
2018-09-18T00:50:59.092Z,4.00
2018-09-18T00:53:30.247Z,3.57
2018-09-18T00:56:01.409Z,3.53
2018-09-18T00:58:31.807Z,3.50
2018-09-18T01:01:02.971Z,3.90
2018-09-18T01:03:33.349Z,3.97
2018-09-18T01:06:03.791Z,3.57
2018-09-18T01:08:34.173Z,4.33
2018-09-18T01:11:07.631Z,4.10
2018-09-18T01:13:38.810Z,3.70
2018-09-18T01:16:09.196Z,3.83
2018-09-18T01:18:39.591Z,3.70
2018-09-18T01:21:11.220Z,3.80
2018-09-18T01:23:41.612Z,3.83
2018-09-18T01:26:12.767Z,3.63
2018-09-18T01:28:43.202Z,3.57
2018-09-18T01:31:13.596Z,3.90
2018-09-18T01:33:43.974Z,3.90
2018-09-18T01:36:16.441Z,4.30
2018-09-18T01:38:46.820Z,4.23
2018-09-18T01:41:17.207Z,3.87
2018-09-18T01:43:47.677Z,3.90
2018-09-18T01:46:24.169Z,3.80
2018-09-18T01:48:55.323Z,4.13
2018-09-18T01:51:25.737Z,4.03
2018-09-18T01:53:57.193Z,3.70
2018-09-18T01:56:27.594Z,4.50
2018-09-18T01:58:58.023Z,4.37
2018-09-18T02:01:28.423Z,4.00
2018-09-18T02:03:58.813Z,3.70
2018-09-18T02:06:29.249Z,4.10
2018-09-18T02:08:59.627Z,3.93
2018-09-18T02:11:30.012Z,3.83
2018-09-18T02:14:03.505Z,4.03
2018-09-18T02:16:35.941Z,3.83
2018-09-18T02:19:07.086Z,3.90
2018-09-18T02:21:38.275Z,4.07
2018-09-18T02:24:12.753Z,4.20
2018-09-18T02:26:43.897Z,4.40
2018-09-18T02:29:15.081Z,4.17
2018-09-18T02:34:33.209Z,4.03
2018-09-18T02:37:04.349Z,4.33
2018-09-18T02:39:35.716Z,4.30
2018-09-18T02:42:06.137Z,4.23
2018-09-18T02:44:37.281Z,4.30
2018-09-18T02:47:08.426Z,4.30
2018-09-18T02:49:39.603Z,4.87
2018-09-18T02:52:11.012Z,4.30
2018-09-18T02:54:42.163Z,3.87
2018-09-18T02:57:12.580Z,4.30
2018-09-18T02:59:43.727Z,4.40
2018-09-18T03:02:15.071Z,4.17
2018-09-18T03:04:45.483Z,4.20
2018-09-18T03:07:15.808Z,4.10
2018-09-18T03:09:46.200Z,4.33
2018-09-18T03:12:24.113Z,4.30
2018-09-18T03:14:57.573Z,4.50
2018-09-18T03:17:27.950Z,4.27
2018-09-18T03:19:58.384Z,4.27
2018-09-18T03:22:30.802Z,4.70
2018-09-18T03:25:01.197Z,4.43
2018-09-18T03:27:31.702Z,4.53
2018-09-18T03:30:02.010Z,3.97
2018-09-18T03:32:32.402Z,4.53
2018-09-18T03:35:02.810Z,4.70
2018-09-18T03:37:33.218Z,4.70
2018-09-18T03:40:03.617Z,4.43
2018-09-18T03:42:34.045Z,4.70
2018-09-18T03:45:04.440Z,4.80
2018-09-18T03:47:34.845Z,5.07
2018-09-18T03:50:05.283Z,4.40
2018-09-18T03:52:36.427Z,4.80
2018-09-18T03:55:07.601Z,4.70
2018-09-18T03:57:38.015Z,4.70
2018-09-18T04:00:08.410Z,4.93
2018-09-18T04:02:40.804Z,4.93
2018-09-18T04:05:11.201Z,4.97
2018-09-18T04:07:41.585Z,4.50
2018-09-18T04:10:11.975Z,4.53
2018-09-18T04:12:42.423Z,5.03
2018-09-18T04:15:12.808Z,4.90
2018-09-18T04:17:43.194Z,4.80
2018-09-18T04:20:15.583Z,4.83
2018-09-18T04:22:48.007Z,4.83
2018-09-18T04:25:19.348Z,5.27
2018-09-18T04:27:49.799Z,4.77
2018-09-18T04:30:26.259Z,4.83
2018-09-18T04:32:57.373Z,4.83
2018-09-18T04:35:27.841Z,4.60
2018-09-18T04:37:58.179Z,4.67
2018-09-18T04:40:28.601Z,4.93
2018-09-18T04:42:58.996Z,5.40
2018-09-18T04:45:30.160Z,5.33
2018-09-18T04:48:00.580Z,5.97
2018-09-18T04:50:33.460Z,5.70
2018-09-18T04:53:02.899Z,5.27
2018-09-18T04:55:34.277Z,5.17
2018-09-18T04:58:04.661Z,5.63
2018-09-18T05:00:35.051Z,5.47
2018-09-18T05:03:05.485Z,5.63
2018-09-18T05:05:36.659Z,7.43
2018-09-18T05:08:07.226Z,7.90
2018-09-18T05:10:37.664Z,7.40
2018-09-18T05:13:08.070Z,7.07
2018-09-18T05:15:45.641Z,6.33
2018-09-18T05:18:15.961Z,7.30
2018-09-18T05:20:46.334Z,6.80
2018-09-18T05:23:16.766Z,5.97
2018-09-18T05:25:47.145Z,5.43
2018-09-18T05:28:18.551Z,6.23
2018-09-18T05:30:48.900Z,5.63
2018-09-18T05:33:20.056Z,5.93
2018-09-18T05:35:50.444Z,5.40
2018-09-18T05:38:20.883Z,5.50
2018-09-18T05:40:51.282Z,5.53
2018-09-18T05:43:22.688Z,5.90
2018-09-18T05:45:53.114Z,5.90
2018-09-18T05:48:23.508Z,5.93
2018-09-18T05:50:53.889Z,5.60
2018-09-18T05:53:26.279Z,5.47
2018-09-18T05:56:02.811Z,5.67
2018-09-18T05:58:34.004Z,7.17
2018-09-18T06:01:04.424Z,7.13
2018-09-18T06:03:41.649Z,7.97
2018-09-18T06:06:14.092Z,7.57
2018-09-18T06:08:49.626Z,7.87
2018-09-18T06:11:20.018Z,8.07
2018-09-18T06:13:50.412Z,7.73
2018-09-18T06:16:21.839Z,11.93
2018-09-18T06:18:53.360Z,8.63
2018-09-18T06:21:23.642Z,8.73
2018-09-18T06:23:54.067Z,7.20
2018-09-18T06:26:24.458Z,8.00
2018-09-18T06:28:59.015Z,8.03
2018-09-18T06:31:29.378Z,8.47
2018-09-18T06:33:59.767Z,8.57
2018-09-18T06:36:30.152Z,7.77
2018-09-18T06:39:00.594Z,7.13
2018-09-18T06:41:30.984Z,8.30
2018-09-18T06:44:02.933Z,7.70
2018-09-18T06:49:22.007Z,7.67
2018-09-18T06:51:52.421Z,7.57
2018-09-18T06:54:23.825Z,8.03
2018-09-18T06:56:54.960Z,7.73
2018-09-18T06:59:26.153Z,7.73
2018-09-18T07:01:56.547Z,7.87
2018-09-18T07:04:26.941Z,7.93
2018-09-18T07:06:58.145Z,7.60
2018-09-18T07:09:28.537Z,7.70
2018-09-18T07:11:58.958Z,8.13
2018-09-18T07:14:30.156Z,7.57
2018-09-18T07:17:00.557Z,7.83
2018-09-18T07:19:30.976Z,7.73
2018-09-18T07:22:01.391Z,7.97
2018-09-18T07:24:31.778Z,7.57
2018-09-18T07:27:02.177Z,8.57
2018-09-18T07:29:54.027Z,7.20
2018-09-18T07:32:24.425Z,8.00
2018-09-18T07:35:02.172Z,7.43
2018-09-18T07:37:32.568Z,7.13
2018-09-18T07:40:03.152Z,6.70
2018-09-18T07:42:33.571Z,7.17
2018-09-18T07:45:04.726Z,7.20
2018-09-18T07:47:35.116Z,7.20
2018-09-18T07:50:05.531Z,7.07
2018-09-18T07:52:36.117Z,7.07
2018-09-18T07:55:06.521Z,7.40
2018-09-18T07:57:37.721Z,6.87
2018-09-18T08:00:08.126Z,8.00
2018-09-18T08:02:40.638Z,6.43
2018-09-18T08:05:12.782Z,7.00
2018-09-18T08:07:42.178Z,6.57
2018-09-18T08:10:12.650Z,6.03
2018-09-18T08:12:43.077Z,7.43
2018-09-18T08:15:13.469Z,7.03
2018-09-18T08:17:45.905Z,7.33
2018-09-18T08:20:17.159Z,7.23
2018-09-18T08:22:47.542Z,6.10
2018-09-18T08:25:19.064Z,6.60
2018-09-18T08:27:50.389Z,6.17
2018-09-18T08:30:20.814Z,6.60
2018-09-18T08:32:51.207Z,6.30
2018-09-18T08:35:21.640Z,6.27
2018-09-18T08:37:52.011Z,5.60
2018-09-18T08:40:22.438Z,6.27
2018-09-18T08:42:52.772Z,6.00
2018-09-18T08:45:23.169Z,5.67
2018-09-18T08:47:53.552Z,5.50
2018-09-18T08:50:25.029Z,5.73
2018-09-18T08:52:55.405Z,5.13
2018-09-18T08:55:27.842Z,5.00
2018-09-18T08:57:58.959Z,5.00
2018-09-18T09:00:29.361Z,5.00
2018-09-18T09:02:59.962Z,5.10
2018-09-18T09:05:30.380Z,4.70
2018-09-18T09:08:00.843Z,5.27
2018-09-18T09:10:31.220Z,5.20
2018-09-18T09:13:01.571Z,5.40
2018-09-18T09:15:31.937Z,5.10
2018-09-18T09:18:02.380Z,4.73
2018-09-18T09:20:32.705Z,4.53
2018-09-18T09:23:03.150Z,4.50
2018-09-18T09:25:33.691Z,4.33
2018-09-18T09:28:04.256Z,4.53
2018-09-18T09:30:38.665Z,4.50
2018-09-18T09:33:09.074Z,4.27
2018-09-18T09:35:40.275Z,4.20
2018-09-18T09:38:10.652Z,4.40
2018-09-18T09:40:40.964Z,4.40
2018-09-18T09:43:11.554Z,3.97
2018-09-18T09:45:41.883Z,3.47
2018-09-18T09:48:12.230Z,3.57
2018-09-18T09:50:43.403Z,3.63
2018-09-18T09:53:13.800Z,3.70
2018-09-18T09:55:44.969Z,3.90
2018-09-18T09:58:15.369Z,3.80
2018-09-18T10:00:46.536Z,4.20
2018-09-18T10:03:16.920Z,3.90
2018-09-18T10:05:47.345Z,3.47
2018-09-18T10:08:17.753Z,3.83
2018-09-18T10:10:50.410Z,4.13
2018-09-18T10:13:20.924Z,3.87
2018-09-18T10:15:52.074Z,3.60
2018-09-18T10:18:23.225Z,3.73
2018-09-18T10:20:53.647Z,3.90
2018-09-18T10:23:24.219Z,4.40
2018-09-18T10:25:55.658Z,3.93
2018-09-18T10:28:26.052Z,3.90
2018-09-18T10:30:56.451Z,3.70
2018-09-18T10:33:26.885Z,3.90
2018-09-18T10:35:57.272Z,4.23
2018-09-18T10:38:47.705Z,3.73
2018-09-18T10:41:18.254Z,3.70
2018-09-18T10:43:48.524Z,4.00
2018-09-18T10:46:38.055Z,4.20
2018-09-18T10:49:09.201Z,3.93
2018-09-18T10:51:39.581Z,4.20
2018-09-18T10:54:09.925Z,4.13
2018-09-18T10:56:40.968Z,4.27
2018-09-18T10:59:11.378Z,4.00
2018-09-18T11:01:41.819Z,4.23
2018-09-18T11:07:06.940Z,3.70
2018-09-18T11:09:37.185Z,4.10
2018-09-18T11:12:07.530Z,3.90
2018-09-18T11:14:38.001Z,4.07
2018-09-18T11:17:08.343Z,4.17
2018-09-18T11:19:38.767Z,4.03
2018-09-18T11:22:10.215Z,4.10
2018-09-18T11:24:40.607Z,4.07
2018-09-18T11:27:10.946Z,4.50
2018-09-18T11:29:45.457Z,4.10
2018-09-18T11:32:16.808Z,4.00
2018-09-18T11:34:47.202Z,3.70
2018-09-18T11:37:18.564Z,4.07
2018-09-18T11:39:48.947Z,4.03
2018-09-18T11:42:19.350Z,3.87
2018-09-18T11:44:51.791Z,4.37
2018-09-18T11:47:22.176Z,4.13
2018-09-18T11:49:52.501Z,4.60
2018-09-18T11:52:23.756Z,3.97
2018-09-18T11:54:54.336Z,4.43
2018-09-18T11:57:26.769Z,3.80
2018-09-18T11:59:57.944Z,4.53
2018-09-18T12:02:28.329Z,4.10
2018-09-18T12:04:58.734Z,4.03
2018-09-18T12:07:29.045Z,4.57
2018-09-18T12:10:17.781Z,4.13
2018-09-18T12:12:48.208Z,4.20
2018-09-18T12:15:18.600Z,4.63
2018-09-18T12:17:49.761Z,4.60
2018-09-18T12:20:20.960Z,4.00
2018-09-18T12:22:51.472Z,4.10
2018-09-18T12:25:21.758Z,4.60
2018-09-18T12:27:52.186Z,4.20
2018-09-18T12:30:22.566Z,4.70
2018-09-18T12:32:52.986Z,4.20
2018-09-18T12:35:24.101Z,4.57
2018-09-18T12:37:54.415Z,5.37
2018-09-18T12:40:24.792Z,4.10
2018-09-18T12:42:55.217Z,4.50
2018-09-18T12:45:28.327Z,3.60
2018-09-18T12:47:59.032Z,4.00
2018-09-18T12:50:29.519Z,4.13
2018-09-18T12:53:21.158Z,4.50
2018-09-18T12:55:51.598Z,4.50
2018-09-18T12:58:21.993Z,4.17
2018-09-18T13:00:52.285Z,4.40
2018-09-18T13:03:22.724Z,4.40
2018-09-18T13:05:53.113Z,4.93
2018-09-18T13:08:30.696Z,4.90
2018-09-18T13:11:01.022Z,4.53
2018-09-18T13:13:31.411Z,4.20
2018-09-18T13:16:01.816Z,4.43
2018-09-18T13:18:32.214Z,4.13
2018-09-18T13:21:05.628Z,4.80
2018-09-18T13:23:35.997Z,4.50
2018-09-18T13:26:06.385Z,4.23
2018-09-18T13:28:36.799Z,4.50
2018-09-18T13:31:13.390Z,4.53
2018-09-18T13:33:44.445Z,4.43
2018-09-18T13:36:14.869Z,4.03
2018-09-18T13:38:45.290Z,4.40
2018-09-18T13:41:15.760Z,4.23
2018-09-18T13:43:49.071Z,4.53
2018-09-18T13:46:19.502Z,4.23
2018-09-18T13:48:49.949Z,3.80
2018-09-18T13:51:21.037Z,4.53
2018-09-18T13:53:52.224Z,4.73
2018-09-18T13:56:30.121Z,4.27
2018-09-18T13:59:00.340Z,3.93
2018-09-18T14:01:31.881Z,4.43
2018-09-18T14:04:02.152Z,4.60
2018-09-18T14:06:32.568Z,4.70
2018-09-18T14:09:03.084Z,4.10
2018-09-18T14:11:33.421Z,4.27
2018-09-18T14:14:04.556Z,4.90
2018-09-18T14:16:42.264Z,4.97
2018-09-18T14:19:12.703Z,4.50
2018-09-18T14:21:43.103Z,4.60
2018-09-18T14:24:15.544Z,4.57
2018-09-18T14:26:46.079Z,4.83
2018-09-18T14:29:17.061Z,4.10
2018-09-18T14:31:47.448Z,4.97
2018-09-18T14:34:17.871Z,4.50
2018-09-18T14:36:48.258Z,4.10
2018-09-18T14:39:18.580Z,4.50
2018-09-18T14:41:50.019Z,4.73
2018-09-18T14:44:20.405Z,4.43
2018-09-18T14:46:50.931Z,4.40
2018-09-18T14:49:21.225Z,4.37
2018-09-18T14:51:51.630Z,4.77
2018-09-18T14:54:23.039Z,4.40
2018-09-18T14:59:41.465Z,4.60
2018-09-18T15:02:11.899Z,4.60
2018-09-18T15:04:42.333Z,4.60
2018-09-18T15:07:14.747Z,4.80
2018-09-18T15:09:46.792Z,4.70
2018-09-18T15:12:17.188Z,4.30
2018-09-18T15:14:47.829Z,4.27
2018-09-18T15:17:18.195Z,5.00
2018-09-18T15:19:48.614Z,3.87
2018-09-18T15:22:19.023Z,4.00
2018-09-18T15:24:50.216Z,4.10
2018-09-18T15:27:40.042Z,4.13
2018-09-18T15:30:11.453Z,4.43
2018-09-18T15:32:41.838Z,4.50
2018-09-18T15:35:12.246Z,4.97
2018-09-18T15:37:42.656Z,4.80
2018-09-18T15:40:13.225Z,4.27
2018-09-18T15:42:43.621Z,4.40
2018-09-18T15:45:14.081Z,4.80
2018-09-18T15:47:44.493Z,4.30
2018-09-18T15:50:14.870Z,4.47
2018-09-18T15:52:48.280Z,4.07
2018-09-18T15:55:18.814Z,4.27
2018-09-18T15:57:54.288Z,4.23
2018-09-18T16:00:27.094Z,4.80
2018-09-18T16:02:57.502Z,4.50
2018-09-18T16:05:27.925Z,4.70
2018-09-18T16:07:58.349Z,4.00
2018-09-18T16:10:28.752Z,4.57
2018-09-18T16:13:02.180Z,4.40
2018-09-18T16:18:02.762Z,4.37
2018-09-18T16:20:33.387Z,4.60
2018-09-18T16:23:03.802Z,4.50
2018-09-18T16:25:34.181Z,4.37
2018-09-18T16:28:04.533Z,4.30
2018-09-18T16:30:34.933Z,4.50
2018-09-18T16:33:06.279Z,4.50
2018-09-18T16:35:36.713Z,4.73
2018-09-18T16:38:08.128Z,4.87
2018-09-18T16:40:39.229Z,4.07
2018-09-18T16:43:11.250Z,4.40
2018-09-18T16:45:48.955Z,4.10
2018-09-18T16:48:38.566Z,4.60
2018-09-18T16:51:08.934Z,5.13
2018-09-18T16:53:39.330Z,4.20
2018-09-18T16:56:10.534Z,3.77
2018-09-18T16:58:42.044Z,5.40
2018-09-18T17:01:12.271Z,4.70
2018-09-18T17:03:42.718Z,4.10
2018-09-18T17:06:13.116Z,4.73
2018-09-18T17:08:43.524Z,4.00
2018-09-18T17:11:13.955Z,4.17
2018-09-18T17:13:45.127Z,4.73
2018-09-18T17:16:15.520Z,4.63
2018-09-18T17:18:45.933Z,4.60
2018-09-18T17:21:16.343Z,4.47
2018-09-18T17:23:46.746Z,4.33
2018-09-18T17:26:20.246Z,4.67
2018-09-18T17:28:50.878Z,4.67
2018-09-18T17:31:20.913Z,4.57
2018-09-18T17:33:52.349Z,4.27
2018-09-18T17:36:22.740Z,4.13
2018-09-18T17:38:53.898Z,4.87
2018-09-18T17:41:24.346Z,4.50
2018-09-18T17:43:54.705Z,4.33
2018-09-18T17:46:25.027Z,4.37
2018-09-18T17:48:55.453Z,4.60
2018-09-18T17:51:26.859Z,4.57
2018-09-18T17:53:57.188Z,4.70
2018-09-18T17:56:27.616Z,4.37
2018-09-18T17:58:57.942Z,4.87
2018-09-18T18:01:28.334Z,4.43
2018-09-18T18:03:58.761Z,4.60
2018-09-18T18:06:29.926Z,4.90
2018-09-18T18:09:01.103Z,4.53
2018-09-18T18:11:31.459Z,4.93
2018-09-18T18:14:04.610Z,4.70
2018-09-18T18:16:35.000Z,5.13
2018-09-18T18:22:32.086Z,4.90
2018-09-18T18:25:02.507Z,4.50
2018-09-18T18:27:33.524Z,4.83
2018-09-18T18:30:03.922Z,5.23
2018-09-18T18:32:56.717Z,4.30
2018-09-18T18:35:27.090Z,5.30
2018-09-18T18:37:57.435Z,4.80
2018-09-18T18:40:48.426Z,4.73
2018-09-18T18:43:21.494Z,5.00
2018-09-18T18:45:51.898Z,5.37
2018-09-18T18:48:23.221Z,4.93
2018-09-18T18:50:53.534Z,5.23
2018-09-18T18:53:23.937Z,4.77
2018-09-18T18:55:54.346Z,4.57
2018-09-18T18:58:25.516Z,4.90
2018-09-18T19:00:55.842Z,5.20
2018-09-18T19:03:29.270Z,5.10
2018-09-18T19:06:00.711Z,4.47
2018-09-18T19:08:31.116Z,5.03
2018-09-18T19:11:04.211Z,4.73
2018-09-18T19:13:34.550Z,4.93
2018-09-18T19:16:04.958Z,5.03
2018-09-18T19:18:39.560Z,4.50
2018-09-18T19:21:14.022Z,5.00
2018-09-18T19:23:51.753Z,4.93
2018-09-18T19:26:22.164Z,4.67
2018-09-18T19:28:52.573Z,4.67
2018-09-18T19:31:23.004Z,5.60
2018-09-18T19:33:53.411Z,4.50
2018-09-18T19:36:25.862Z,4.47
2018-09-18T19:38:56.350Z,4.87
2018-09-18T19:41:26.904Z,4.97
2018-09-18T19:43:57.317Z,5.30
2018-09-18T19:46:27.680Z,4.83
2018-09-18T19:48:58.098Z,5.00
2018-09-18T19:51:31.612Z,5.30
2018-09-18T19:54:04.077Z,5.07
2018-09-18T19:56:37.313Z,5.40
2018-09-18T19:59:17.436Z,4.87
2018-09-18T20:01:50.918Z,4.83
2018-09-18T20:04:26.372Z,4.37
2018-09-18T20:06:59.919Z,5.37
2018-09-18T20:09:31.372Z,5.03
2018-09-18T20:12:01.792Z,5.30
2018-09-18T20:14:36.318Z,4.93
2018-09-18T20:17:06.687Z,5.23
2018-09-18T20:19:38.083Z,5.37
2018-09-18T20:22:10.516Z,4.93
2018-09-18T20:24:41.871Z,4.40
2018-09-18T20:27:12.297Z,4.93
2018-09-18T20:29:48.445Z,4.57
2018-09-18T20:32:18.903Z,5.27
2018-09-18T20:34:49.236Z,4.50
2018-09-18T20:37:19.484Z,5.00
2018-09-18T20:39:49.995Z,4.83
2018-09-18T20:42:20.311Z,5.07
2018-09-18T20:44:51.739Z,4.90
2018-09-18T20:47:24.827Z,4.90
2018-09-18T20:49:55.406Z,4.70
2018-09-18T20:52:25.824Z,5.10
2018-09-18T20:55:03.510Z,4.50
2018-09-18T20:57:34.932Z,4.80
2018-09-18T21:00:06.102Z,5.37
2018-09-18T21:02:37.451Z,5.37
2018-09-18T21:05:07.779Z,5.67
2018-09-18T21:07:38.100Z,4.93
2018-09-18T21:10:08.544Z,4.83
2018-09-18T21:12:40.749Z,5.20
2018-09-18T21:15:11.140Z,5.00
2018-09-18T21:18:00.682Z,4.87
2018-09-18T21:20:31.080Z,5.03
2018-09-18T21:23:01.499Z,5.13
2018-09-18T21:25:31.832Z,5.30
2018-09-18T21:28:02.973Z,5.07
2018-09-18T21:30:33.326Z,5.10
2018-09-18T21:33:04.612Z,5.10
2018-09-18T21:35:56.355Z,4.90
2018-09-18T21:38:26.787Z,4.70
2018-09-18T21:40:57.184Z,5.10
2018-09-18T21:43:27.767Z,4.93
2018-09-18T21:45:58.955Z,4.77
2018-09-18T21:48:29.277Z,4.77
2018-09-18T21:50:59.677Z,4.83
2018-09-18T21:53:31.802Z,4.83
2018-09-18T21:56:03.242Z,4.83
2018-09-18T21:58:55.773Z,5.03
2018-09-18T22:01:26.162Z,4.83
2018-09-18T22:03:56.417Z,5.10
2018-09-18T22:06:26.858Z,4.77
2018-09-18T22:08:57.454Z,4.30
2018-09-18T22:11:27.855Z,4.53
2018-09-18T22:13:58.306Z,4.50
2018-09-18T22:16:29.402Z,4.43
2018-09-18T22:19:01.838Z,4.83
2018-09-18T22:21:32.278Z,4.87
2018-09-18T22:24:02.670Z,4.50
2018-09-18T22:26:34.082Z,4.60
2018-09-18T22:29:06.273Z,4.80
2018-09-18T22:31:37.681Z,4.67
2018-09-18T22:34:08.009Z,4.40
2018-09-18T22:36:38.422Z,4.10
2018-09-18T22:39:08.751Z,4.60
2018-09-18T22:41:39.094Z,5.53
2018-09-18T22:47:17.524Z,4.60
2018-09-18T22:49:48.652Z,4.90
2018-09-18T22:52:18.975Z,4.40
2018-09-18T22:54:49.378Z,4.27
2018-09-18T22:57:19.800Z,4.60
2018-09-18T22:59:50.119Z,4.80
2018-09-18T23:02:20.515Z,4.50
2018-09-18T23:05:00.914Z,4.87
2018-09-18T23:07:31.313Z,4.80
2018-09-18T23:10:01.701Z,4.80
2018-09-18T23:12:32.153Z,4.70
2018-09-18T23:15:21.918Z,4.60
2018-09-18T23:17:52.335Z,5.10
2018-09-18T23:20:22.739Z,5.63
2018-09-18T23:22:53.816Z,4.60
2018-09-18T23:25:28.340Z,4.97
2018-09-18T23:28:02.845Z,4.57
2018-09-18T23:30:33.251Z,4.77
2018-09-18T23:33:04.638Z,4.97
2018-09-18T23:35:35.037Z,4.27
2018-09-18T23:38:05.476Z,4.67
2018-09-18T23:40:35.855Z,5.00
2018-09-18T23:43:06.262Z,4.63
2018-09-18T23:45:44.201Z,4.87
2018-09-18T23:48:14.582Z,5.20
2018-09-18T23:50:51.920Z,4.93
2018-09-18T23:53:22.334Z,4.87
2018-09-18T23:55:52.724Z,5.13
2018-09-18T23:58:42.512Z,5.27
